createdAt,value
2019-04-16T00:03:00.000Z,9.0
2019-04-16T00:08:00.000Z,8.9
2019-04-16T00:13:00.000Z,8.8
2019-04-16T00:18:00.000Z,8.6
2019-04-16T00:23:00.000Z,8.5
2019-04-16T00:28:00.000Z,8.4
2019-04-16T00:33:00.000Z,8.3
2019-04-16T00:38:00.000Z,8.2
2019-04-16T00:43:00.000Z,8.2
2019-04-16T00:48:00.000Z,8.1
2019-04-16T00:53:00.000Z,8.1
2019-04-16T00:58:00.000Z,7.9
2019-04-16T01:03:00.000Z,7.9
2019-04-16T01:08:00.000Z,7.9
2019-04-16T01:13:00.000Z,7.9
2019-04-16T01:18:00.000Z,7.8
2019-04-16T01:23:00.000Z,7.8
2019-04-16T01:28:00.000Z,7.8
2019-04-16T01:34:00.000Z,7.8
2019-04-16T01:39:00.000Z,7.7
2019-04-16T01:44:00.000Z,7.6
2019-04-16T01:49:00.000Z,7.6
2019-04-16T01:54:00.000Z,7.5
2019-04-16T01:59:00.000Z,7.5
2019-04-16T02:04:00.000Z,7.4
2019-04-16T02:09:00.000Z,7.3
2019-04-16T02:14:00.000Z,7.3
2019-04-16T02:19:00.000Z,7.2
2019-04-16T02:24:00.000Z,7.1
2019-04-16T02:29:00.000Z,7.0
2019-04-16T02:34:00.000Z,6.9
2019-04-16T02:39:00.000Z,6.9
2019-04-16T02:44:00.000Z,6.8
2019-04-16T02:49:00.000Z,6.7
2019-04-16T02:54:00.000Z,6.8
2019-04-16T02:59:00.000Z,6.7
2019-04-16T03:04:00.000Z,6.6
2019-04-16T03:10:00.000Z,6.7
2019-04-16T03:15:00.000Z,6.7
2019-04-16T03:20:00.000Z,6.8
2019-04-16T03:25:00.000Z,6.9
2019-04-16T03:30:00.000Z,6.9
2019-04-16T03:35:00.000Z,7.0
2019-04-16T03:40:00.000Z,7.0
2019-04-16T03:45:00.000Z,7.0
2019-04-16T03:50:00.000Z,7.0
2019-04-16T03:55:00.000Z,7.0
2019-04-16T04:00:00.000Z,7.1
2019-04-16T04:05:00.000Z,7.0
2019-04-16T04:10:00.000Z,7.0
2019-04-16T04:15:00.000Z,7.0
2019-04-16T04:20:00.000Z,7.0
2019-04-16T04:25:00.000Z,7.0
2019-04-16T04:30:00.000Z,7.0
2019-04-16T04:35:00.000Z,7.0
2019-04-16T04:40:00.000Z,6.9
2019-04-16T04:45:00.000Z,6.9
2019-04-16T04:50:00.000Z,6.9
2019-04-16T04:55:00.000Z,6.9
2019-04-16T05:00:00.000Z,6.9
2019-04-16T05:05:00.000Z,6.8
2019-04-16T05:10:00.000Z,6.8
2019-04-16T05:16:00.000Z,6.7
2019-04-16T05:21:00.000Z,6.7
2019-04-16T05:26:00.000Z,6.7
2019-04-16T05:31:00.000Z,6.8
2019-04-16T05:36:00.000Z,6.9
2019-04-16T05:41:00.000Z,7.0
2019-04-16T05:46:00.000Z,6.9
2019-04-16T05:51:00.000Z,6.9
2019-04-16T05:56:00.000Z,7.0
2019-04-16T06:01:00.000Z,7.0
2019-04-16T06:06:00.000Z,7.2
2019-04-16T06:11:00.000Z,7.4
2019-04-16T06:16:00.000Z,7.6
2019-04-16T06:21:00.000Z,7.7
2019-04-16T06:26:00.000Z,7.9
2019-04-16T06:31:00.000Z,8.1
2019-04-16T06:36:00.000Z,8.3
2019-04-16T06:41:00.000Z,8.4
2019-04-16T06:46:00.000Z,8.6
2019-04-16T06:51:00.000Z,8.9
2019-04-16T06:56:00.000Z,9.0
2019-04-16T07:01:00.000Z,9.2
2019-04-16T07:06:00.000Z,9.3
2019-04-16T07:11:00.000Z,9.5
2019-04-16T07:16:00.000Z,9.7
2019-04-16T07:22:00.000Z,9.9
2019-04-16T07:27:00.000Z,10.0
2019-04-16T07:32:00.000Z,10.2
2019-04-16T07:37:00.000Z,10.4
2019-04-16T07:42:00.000Z,10.6
2019-04-16T07:47:00.000Z,10.7
2019-04-16T07:52:00.000Z,10.8
2019-04-16T07:57:00.000Z,11.7
2019-04-16T08:02:00.000Z,12.7
2019-04-16T08:07:00.000Z,13.4
2019-04-16T08:12:00.000Z,14.3
2019-04-16T08:17:00.000Z,14.8
2019-04-16T08:22:00.000Z,15.3
2019-04-16T08:27:00.000Z,16.2
2019-04-16T08:32:00.000Z,16.9
2019-04-16T08:37:00.000Z,17.6
2019-04-16T08:42:00.000Z,18.3
2019-04-16T08:47:00.000Z,18.8
2019-04-16T08:52:00.000Z,19.5
2019-04-16T08:57:00.000Z,19.9
2019-04-16T09:02:00.000Z,20.2
2019-04-16T09:07:00.000Z,20.3
2019-04-16T09:13:00.000Z,20.5
2019-04-16T09:18:00.000Z,20.5
2019-04-16T09:23:00.000Z,20.8
2019-04-16T09:28:00.000Z,20.9
2019-04-16T09:33:00.000Z,21.1
2019-04-16T09:38:00.000Z,21.0
2019-04-16T09:43:00.000Z,21.3
2019-04-16T09:48:00.000Z,21.5
2019-04-16T09:53:00.000Z,21.5
2019-04-16T09:58:00.000Z,21.4
2019-04-16T10:03:00.000Z,21.2
2019-04-16T10:08:00.000Z,21.1
2019-04-16T10:13:00.000Z,21.2
2019-04-16T10:18:00.000Z,21.2
2019-04-16T10:23:00.000Z,21.1
2019-04-16T10:28:00.000Z,20.8
2019-04-16T10:33:00.000Z,20.7
2019-04-16T10:38:00.000Z,20.8
2019-04-16T10:43:00.000Z,20.8
2019-04-16T10:48:00.000Z,20.9
2019-04-16T10:53:00.000Z,20.8
2019-04-16T10:58:00.000Z,20.2
2019-04-16T11:03:00.000Z,20.0
2019-04-16T11:08:00.000Z,19.8
2019-04-16T11:13:00.000Z,19.8
2019-04-16T11:19:00.000Z,19.8
2019-04-16T11:24:00.000Z,19.5
2019-04-16T11:29:00.000Z,19.4
2019-04-16T11:34:00.000Z,19.4
2019-04-16T11:39:00.000Z,19.2
2019-04-16T11:44:00.000Z,19.1
2019-04-16T11:49:00.000Z,18.9
2019-04-16T11:54:00.000Z,18.7
2019-04-16T11:59:00.000Z,18.5
2019-04-16T12:04:00.000Z,18.5
2019-04-16T12:09:00.000Z,18.4
2019-04-16T12:14:00.000Z,18.6
2019-04-16T12:19:00.000Z,18.6
2019-04-16T12:24:00.000Z,18.7
2019-04-16T12:29:00.000Z,18.8
2019-04-16T12:34:00.000Z,19.2
2019-04-16T12:39:00.000Z,19.4
2019-04-16T12:44:00.000Z,19.2
2019-04-16T12:49:00.000Z,19.3
2019-04-16T12:54:00.000Z,19.4
2019-04-16T12:59:00.000Z,19.5
2019-04-16T13:04:00.000Z,19.7
2019-04-16T13:09:00.000Z,19.9
2019-04-16T13:14:00.000Z,19.9
2019-04-16T13:20:00.000Z,20.1
2019-04-16T13:25:00.000Z,20.3
2019-04-16T13:30:00.000Z,20.4
2019-04-16T13:35:00.000Z,20.6
2019-04-16T13:40:00.000Z,20.8
2019-04-16T13:45:00.000Z,20.8
2019-04-16T13:50:00.000Z,20.8
2019-04-16T13:55:00.000Z,20.6
2019-04-16T14:00:00.000Z,20.5
2019-04-16T14:05:00.000Z,20.7
2019-04-16T14:10:00.000Z,20.8
2019-04-16T14:15:00.000Z,20.5
2019-04-16T14:20:00.000Z,20.5
2019-04-16T14:25:00.000Z,20.4
2019-04-16T14:30:00.000Z,20.4
2019-04-16T14:35:00.000Z,20.3
2019-04-16T14:40:00.000Z,20.3
2019-04-16T14:45:00.000Z,20.3
2019-04-16T14:51:00.000Z,20.1
2019-04-16T14:56:00.000Z,19.8
2019-04-16T15:01:00.000Z,19.7
2019-04-16T15:06:00.000Z,19.5
2019-04-16T15:11:00.000Z,19.3
2019-04-16T15:16:00.000Z,19.1
2019-04-16T15:21:00.000Z,19.0
2019-04-16T15:26:00.000Z,18.7
2019-04-16T15:31:00.000Z,18.6
2019-04-16T15:36:00.000Z,18.5
2019-04-16T15:41:00.000Z,18.4
2019-04-16T15:46:00.000Z,18.2
2019-04-16T15:51:00.000Z,18.1
2019-04-16T15:56:00.000Z,18.0
2019-04-16T16:01:00.000Z,17.9
2019-04-16T16:06:00.000Z,17.8
2019-04-16T16:11:00.000Z,17.7
2019-04-16T16:16:00.000Z,17.5
2019-04-16T16:21:00.000Z,17.4
2019-04-16T16:26:00.000Z,17.3
2019-04-16T16:31:00.000Z,17.2
2019-04-16T16:36:00.000Z,17.1
2019-04-16T16:41:00.000Z,17.0
2019-04-16T16:46:00.000Z,16.9
2019-04-16T16:51:00.000Z,16.8
2019-04-16T16:56:00.000Z,16.6
2019-04-16T17:02:00.000Z,16.5
2019-04-16T17:07:00.000Z,16.3
2019-04-16T17:12:00.000Z,16.2
2019-04-16T17:17:00.000Z,16.1
2019-04-16T17:22:00.000Z,15.9
2019-04-16T17:27:00.000Z,15.8
2019-04-16T17:32:00.000Z,15.7
2019-04-16T17:37:00.000Z,15.6
2019-04-16T17:42:00.000Z,15.5
2019-04-16T17:47:00.000Z,15.4
2019-04-16T17:52:00.000Z,15.3
2019-04-16T17:57:00.000Z,15.2
2019-04-16T18:02:00.000Z,15.1
2019-04-16T18:07:00.000Z,15.0
2019-04-16T18:12:00.000Z,14.9
2019-04-16T18:17:00.000Z,14.9
2019-04-16T18:22:00.000Z,14.8
2019-04-16T18:27:00.000Z,14.8
2019-04-16T18:32:00.000Z,14.7
2019-04-16T18:37:00.000Z,14.6
2019-04-16T18:42:00.000Z,14.6
2019-04-16T18:47:00.000Z,14.5
2019-04-16T18:53:00.000Z,14.3
2019-04-16T18:58:00.000Z,14.2
2019-04-16T19:03:00.000Z,14.2
2019-04-16T19:08:00.000Z,14.1
2019-04-16T19:13:00.000Z,14.1
2019-04-16T19:18:00.000Z,14.0
2019-04-16T19:23:00.000Z,13.9
2019-04-16T19:28:00.000Z,13.9
2019-04-16T19:33:00.000Z,13.8
2019-04-16T19:38:00.000Z,13.8
2019-04-16T19:43:00.000Z,13.7
2019-04-16T19:48:00.000Z,13.6
2019-04-16T19:53:00.000Z,13.6
2019-04-16T19:58:00.000Z,13.5
2019-04-16T20:03:00.000Z,13.5
2019-04-16T20:08:00.000Z,13.4
2019-04-16T20:13:00.000Z,13.4
2019-04-16T20:18:00.000Z,13.4
2019-04-16T20:23:00.000Z,13.3
2019-04-16T20:28:00.000Z,13.2
2019-04-16T20:33:00.000Z,13.2
2019-04-16T20:38:00.000Z,13.1
2019-04-16T20:43:00.000Z,13.1
2019-04-16T20:48:00.000Z,13.0
2019-04-16T20:54:00.000Z,12.8
2019-04-16T20:59:00.000Z,12.8
2019-04-16T21:04:00.000Z,12.7
2019-04-16T21:09:00.000Z,12.7
2019-04-16T21:14:00.000Z,12.6
2019-04-16T21:19:00.000Z,12.6
2019-04-16T21:24:00.000Z,12.5
2019-04-16T21:29:00.000Z,12.4
2019-04-16T21:34:00.000Z,12.4
2019-04-16T21:39:00.000Z,12.4
2019-04-16T21:44:00.000Z,12.3
2019-04-16T21:49:00.000Z,12.2
2019-04-16T21:54:00.000Z,12.1
2019-04-16T21:59:00.000Z,12.1
2019-04-16T22:04:00.000Z,12.1
2019-04-16T22:09:00.000Z,12.0
2019-04-16T22:14:00.000Z,11.9
2019-04-16T22:19:00.000Z,11.9
2019-04-16T22:25:00.000Z,11.9
2019-04-16T22:30:00.000Z,11.8
2019-04-16T22:35:00.000Z,11.8
2019-04-16T22:40:00.000Z,11.7
2019-04-16T22:45:00.000Z,11.6
2019-04-16T22:50:00.000Z,11.6
2019-04-16T22:55:00.000Z,11.5
2019-04-16T23:00:00.000Z,11.5
2019-04-16T23:05:00.000Z,11.5
2019-04-16T23:10:00.000Z,11.4
2019-04-16T23:15:00.000Z,11.4
2019-04-16T23:20:00.000Z,11.4
2019-04-16T23:25:00.000Z,11.3
2019-04-16T23:30:00.000Z,11.2
2019-04-16T23:35:00.000Z,11.1
2019-04-16T23:40:00.000Z,11.1
2019-04-16T23:45:00.000Z,11.0
2019-04-16T23:50:00.000Z,10.9
2019-04-16T23:55:00.000Z,10.8
